createdAt,value
2023-05-22T00:00:15.249Z,14.13
2023-05-22T00:05:16.960Z,13.55
2023-05-22T00:10:20.043Z,14.95
2023-05-22T00:15:21.683Z,16.58
2023-05-22T00:20:23.274Z,14.32
2023-05-22T00:25:26.208Z,11.85
2023-05-22T00:30:27.774Z,16.88
2023-05-22T00:35:29.535Z,18.77
2023-05-22T00:40:32.756Z,14.90
2023-05-22T00:45:34.352Z,17.00
2023-05-22T00:50:36.037Z,15.40
2023-05-22T00:55:39.282Z,18.23
2023-05-22T01:00:41.939Z,15.27
2023-05-22T01:05:43.861Z,16.15
2023-05-22T01:10:52.073Z,17.10
2023-05-22T01:16:05.923Z,18.23
2023-05-22T01:21:15.996Z,17.45
2023-05-22T01:26:50.298Z,17.60
2023-05-22T01:31:57.521Z,14.32
2023-05-22T01:37:00.300Z,20.23
2023-05-22T01:42:01.948Z,16.65
2023-05-22T01:47:05.423Z,24.38
2023-05-22T01:52:12.918Z,14.02
2023-05-22T01:57:21.059Z,18.98
2023-05-22T02:02:25.990Z,15.25
2023-05-22T02:07:28.850Z,18.85
2023-05-22T02:12:30.743Z,15.52
2023-05-22T02:17:37.118Z,16.95
2023-05-22T02:22:38.683Z,17.30
2023-05-22T02:27:41.287Z,18.75
2023-05-22T02:32:44.448Z,18.95
2023-05-22T02:37:46.075Z,16.90
2023-05-22T02:42:47.674Z,18.27
2023-05-22T02:47:50.665Z,18.88
2023-05-22T02:52:52.308Z,17.25
2023-05-22T02:57:53.929Z,18.55
2023-05-22T03:02:56.919Z,16.58
2023-05-22T03:07:58.603Z,19.88
2023-05-22T03:13:00.181Z,16.83
2023-05-22T03:18:03.316Z,18.23
2023-05-22T03:23:05.287Z,17.55
2023-05-22T03:28:06.876Z,15.98
2023-05-22T03:33:09.894Z,23.17
2023-05-22T03:38:11.642Z,18.95
2023-05-22T03:43:13.285Z,17.33
2023-05-22T03:48:16.238Z,16.58
2023-05-22T03:53:17.822Z,17.98
2023-05-22T03:58:19.473Z,19.92
2023-05-22T04:03:22.518Z,18.48
2023-05-22T04:08:24.217Z,16.23
2023-05-22T04:13:27.403Z,18.45
2023-05-22T04:18:30.642Z,18.52
2023-05-22T04:23:32.195Z,19.80
2023-05-22T04:28:33.770Z,17.45
2023-05-22T04:33:36.694Z,18.17
2023-05-22T04:38:38.310Z,18.42
2023-05-22T04:43:39.919Z,18.25
2023-05-22T04:48:42.903Z,17.50
2023-05-22T04:53:44.504Z,15.98
2023-05-22T04:58:46.068Z,17.92
2023-05-22T05:03:49.056Z,18.27
2023-05-22T05:08:50.666Z,20.52
2023-05-22T05:13:52.260Z,20.02
2023-05-22T05:18:55.249Z,16.92
2023-05-22T05:23:56.813Z,18.17
2023-05-22T05:28:58.404Z,17.00
2023-05-22T05:34:01.343Z,15.50
2023-05-22T05:39:02.935Z,17.88
2023-05-22T05:44:04.820Z,16.30
2023-05-22T05:49:09.134Z,15.25
2023-05-22T05:54:10.726Z,16.65
2023-05-22T05:59:12.308Z,18.73
2023-05-22T06:04:15.229Z,15.23
2023-05-22T06:09:16.859Z,14.77
2023-05-22T06:14:18.443Z,16.20
2023-05-22T06:19:21.390Z,16.38
2023-05-22T06:24:22.993Z,14.20
2023-05-22T06:29:24.581Z,14.88
2023-05-22T06:34:27.595Z,13.23
2023-05-22T06:39:29.879Z,13.10
2023-05-22T06:44:33.620Z,16.73
2023-05-22T06:49:36.585Z,16.83
2023-05-22T06:54:38.126Z,20.15
2023-05-22T06:59:39.775Z,15.10
2023-05-22T07:04:42.703Z,17.70
2023-05-22T07:09:44.315Z,20.20
2023-05-22T07:14:45.915Z,17.85
2023-05-22T07:19:48.844Z,13.75
2023-05-22T07:24:50.452Z,15.07
2023-05-22T07:29:52.049Z,15.38
2023-05-22T07:34:54.990Z,15.25
2023-05-22T07:39:56.561Z,15.02
2023-05-22T07:44:58.113Z,13.10
2023-05-22T07:50:01.018Z,12.57
2023-05-22T07:55:02.654Z,11.95
2023-05-22T08:00:04.689Z,14.95
2023-05-22T08:05:09.199Z,13.30
2023-05-22T08:10:14.806Z,13.68
2023-05-22T08:15:16.357Z,15.40
2023-05-22T08:20:19.347Z,16.92
2023-05-22T08:25:20.935Z,15.05
2023-05-22T08:30:22.524Z,12.18
2023-05-22T08:35:25.441Z,13.10
2023-05-22T08:40:34.677Z,13.90
2023-05-22T08:45:36.570Z,13.13
2023-05-22T08:50:42.051Z,15.10
2023-05-22T08:55:43.891Z,11.93
2023-05-22T09:00:46.039Z,13.88
2023-05-22T09:05:48.978Z,11.38
2023-05-22T09:10:50.594Z,19.40
2023-05-22T09:15:52.193Z,19.55
2023-05-22T09:20:57.588Z,12.70
2023-05-22T09:26:00.640Z,15.95
2023-05-22T09:31:04.132Z,16.42
2023-05-22T09:36:09.279Z,18.65
2023-05-22T09:41:10.843Z,13.90
2023-05-22T09:46:16.405Z,14.68
2023-05-22T09:51:22.054Z,17.48
2023-05-22T09:56:37.952Z,17.05
2023-05-22T10:01:41.327Z,11.40
2023-05-22T10:06:50.389Z,14.57
2023-05-22T10:11:54.958Z,12.52
2023-05-22T10:16:57.824Z,16.17
2023-05-22T10:22:00.796Z,11.98
2023-05-22T10:27:02.884Z,12.35
2023-05-22T10:32:09.733Z,14.18
2023-05-22T10:42:23.985Z,11.27
2023-05-22T10:47:26.447Z,10.15
2023-05-22T10:52:29.479Z,12.73
2023-05-22T10:57:32.890Z,9.10
2023-05-22T11:02:39.563Z,11.45
2023-05-22T11:07:42.626Z,9.20
2023-05-22T11:12:44.237Z,10.95
2023-05-22T11:17:48.608Z,12.63
2023-05-22T11:22:56.580Z,8.88
2023-05-22T11:27:58.530Z,11.75
2023-05-22T11:33:01.611Z,13.30
2023-05-22T11:38:05.514Z,10.73
2023-05-22T11:43:07.113Z,10.38
2023-05-22T11:48:09.069Z,7.10
2023-05-22T11:53:12.170Z,13.73
2023-05-22T11:58:13.738Z,8.63
2023-05-22T12:03:15.417Z,10.65
2023-05-22T12:08:18.545Z,15.27
2023-05-22T12:13:24.624Z,9.02
2023-05-22T12:18:26.326Z,6.68
2023-05-22T12:23:29.526Z,5.47
2023-05-22T12:28:31.849Z,8.48
2023-05-22T12:33:33.474Z,9.00
2023-05-22T12:38:38.241Z,6.40
2023-05-22T12:43:39.920Z,8.82
2023-05-22T12:48:41.531Z,5.32
2023-05-22T12:53:44.538Z,6.72
2023-05-22T12:58:46.091Z,5.97
2023-05-22T13:03:47.714Z,5.90
2023-05-22T13:08:51.052Z,5.85
2023-05-22T13:13:52.633Z,6.90
2023-05-22T13:18:54.249Z,6.30
2023-05-22T13:23:57.173Z,5.95
2023-05-22T13:28:58.697Z,6.63
2023-05-22T13:34:02.915Z,8.27
2023-05-22T13:39:06.272Z,8.15
2023-05-22T13:44:07.920Z,9.38
2023-05-22T13:49:09.516Z,11.13
2023-05-22T13:54:12.464Z,11.27
2023-05-22T13:59:14.137Z,11.45
2023-05-22T14:04:15.741Z,10.50
2023-05-22T14:09:18.732Z,10.77
2023-05-22T14:14:21.332Z,9.63
2023-05-22T14:19:23.029Z,10.00
2023-05-22T14:24:25.995Z,7.95
2023-05-22T14:29:28.176Z,9.70
2023-05-22T14:34:30.207Z,11.15
2023-05-22T14:39:33.198Z,10.32
2023-05-22T14:44:34.792Z,6.45
2023-05-22T14:49:36.354Z,6.28
2023-05-22T14:54:39.265Z,12.27
2023-05-22T14:59:40.829Z,7.82
2023-05-22T15:04:42.459Z,6.13
2023-05-22T15:09:45.388Z,5.80
2023-05-22T15:14:46.939Z,8.32
2023-05-22T15:19:48.509Z,8.50
2023-05-22T15:25:03.279Z,10.60
2023-05-22T15:30:06.096Z,11.13
2023-05-22T15:35:08.739Z,9.85
2023-05-22T15:40:12.228Z,7.40
2023-05-22T15:45:13.823Z,8.35
2023-05-22T15:50:15.389Z,9.80
2023-05-22T15:55:18.296Z,9.02
2023-05-22T16:00:21.221Z,11.48
2023-05-22T16:05:22.944Z,9.32
2023-05-22T16:10:25.801Z,8.95
2023-05-22T16:15:27.419Z,7.43
2023-05-22T16:20:29.044Z,8.85
2023-05-22T16:25:31.948Z,8.05
2023-05-22T16:30:33.517Z,4.57
2023-05-22T16:35:35.102Z,7.32
2023-05-22T16:40:38.069Z,9.20
2023-05-22T16:45:40.532Z,10.43
2023-05-22T16:50:42.280Z,7.80
2023-05-22T16:55:45.752Z,8.70
2023-05-22T17:00:47.463Z,10.10
2023-05-22T17:05:49.253Z,8.55
2023-05-22T17:10:52.144Z,14.98
2023-05-22T17:15:53.717Z,10.18
2023-05-22T17:20:55.340Z,10.15
2023-05-22T17:25:58.517Z,9.13
2023-05-22T17:31:00.205Z,9.77
2023-05-22T17:36:01.777Z,10.32
2023-05-22T17:41:04.879Z,11.02
2023-05-22T17:46:06.484Z,8.73
2023-05-22T17:51:08.061Z,9.68
2023-05-22T17:56:11.039Z,9.93
2023-05-22T18:01:12.652Z,10.20
2023-05-22T18:06:14.247Z,11.27
2023-05-22T18:11:17.205Z,8.60
2023-05-22T18:16:18.827Z,7.45
2023-05-22T18:21:20.459Z,12.40
2023-05-22T18:26:23.359Z,11.50
2023-05-22T18:31:24.972Z,8.00
2023-05-22T18:36:26.561Z,8.68
2023-05-22T18:41:29.525Z,10.05
2023-05-22T18:46:31.187Z,8.13
2023-05-22T18:51:32.790Z,8.38
2023-05-22T18:56:35.731Z,9.80
2023-05-22T19:01:37.437Z,9.80
2023-05-22T19:06:39.122Z,10.48
2023-05-22T19:11:42.018Z,10.43
2023-05-22T19:16:44.177Z,9.45
2023-05-22T19:21:45.894Z,12.35
2023-05-22T19:26:48.847Z,10.23
2023-05-22T19:31:50.469Z,10.30
2023-05-22T19:36:52.075Z,9.70
2023-05-22T19:41:55.005Z,12.38
2023-05-22T19:46:56.628Z,10.23
2023-05-22T19:51:58.256Z,9.35
2023-05-22T19:57:01.758Z,11.48
2023-05-22T20:02:03.443Z,10.07
2023-05-22T20:07:05.420Z,11.75
2023-05-22T20:12:08.783Z,10.75
2023-05-22T20:17:10.366Z,11.55
2023-05-22T20:22:12.015Z,8.23
2023-05-22T20:27:15.320Z,10.35
2023-05-22T20:32:16.898Z,11.90
2023-05-22T20:37:18.618Z,11.00
2023-05-22T20:42:21.871Z,11.32
2023-05-22T20:47:23.600Z,14.15
2023-05-22T20:52:25.187Z,11.57
2023-05-22T20:57:28.088Z,11.75
2023-05-22T21:02:29.713Z,14.98
2023-05-22T21:07:31.309Z,15.35
2023-05-22T21:12:34.456Z,13.68
2023-05-22T21:17:36.079Z,13.63
2023-05-22T21:22:37.692Z,12.18
2023-05-22T21:27:40.598Z,13.15
2023-05-22T21:32:42.216Z,13.60
2023-05-22T21:37:43.805Z,11.65
2023-05-22T21:42:47.473Z,18.30
2023-05-22T21:47:49.273Z,12.85
2023-05-22T21:52:50.963Z,13.95
2023-05-22T21:57:55.267Z,16.73
2023-05-22T22:02:56.964Z,16.17
2023-05-22T22:07:58.576Z,19.90
2023-05-22T22:13:01.847Z,18.02
2023-05-22T22:18:03.653Z,17.50
2023-05-22T22:23:05.294Z,22.27
2023-05-22T22:28:08.228Z,20.50
2023-05-22T22:33:09.973Z,17.48
2023-05-22T22:38:11.702Z,17.65
2023-05-22T22:43:14.787Z,18.42
2023-05-22T22:48:16.621Z,17.15
2023-05-22T22:53:18.317Z,15.77
2023-05-22T22:58:21.320Z,14.73
2023-05-22T23:03:23.026Z,14.38
2023-05-22T23:08:24.603Z,14.48
2023-05-22T23:13:27.527Z,14.80
2023-05-22T23:18:29.111Z,18.70
2023-05-22T23:23:30.689Z,13.85
2023-05-22T23:28:33.613Z,15.20
2023-05-22T23:33:35.177Z,16.30
2023-05-22T23:38:36.761Z,13.52
2023-05-22T23:43:39.737Z,15.05
2023-05-22T23:48:42.412Z,16.88
2023-05-22T23:53:44.344Z,16.80
2023-05-22T23:58:47.308Z,14.00
